createdAt,value
2022-08-16T00:01:42.504Z,12.15
2022-08-16T00:04:11.751Z,11.75
2022-08-16T00:06:39.683Z,13.60
2022-08-16T00:09:07.669Z,14.55
2022-08-16T00:11:42.437Z,16.13
2022-08-16T00:14:16.891Z,16.45
2022-08-16T00:17:06.039Z,15.05
2022-08-16T00:19:41.100Z,14.90
2022-08-16T00:22:12.702Z,13.90
2022-08-16T00:24:44.928Z,15.43
2022-08-16T00:27:15.456Z,17.38
2022-08-16T00:29:45.802Z,18.58
2022-08-16T00:32:17.993Z,17.30
2022-08-16T00:34:52.905Z,18.77
2022-08-16T00:37:58.231Z,17.48
2022-08-16T00:40:34.120Z,15.88
2022-08-16T00:43:19.252Z,20.00
2022-08-16T00:46:34.032Z,16.67
2022-08-16T00:49:00.562Z,15.55
2022-08-16T00:51:31.609Z,17.45
2022-08-16T00:53:58.573Z,19.48
2022-08-16T00:56:56.248Z,18.25
2022-08-16T00:59:27.417Z,17.08
2022-08-16T01:01:56.078Z,18.88
2022-08-16T01:04:30.070Z,18.08
2022-08-16T01:07:02.875Z,18.15
2022-08-16T01:09:38.419Z,19.23
2022-08-16T01:12:11.973Z,20.20
2022-08-16T01:14:59.858Z,19.90
2022-08-16T01:17:36.636Z,18.45
2022-08-16T01:20:23.669Z,19.80
2022-08-16T01:23:17.738Z,19.63
2022-08-16T01:26:00.185Z,20.95
2022-08-16T01:28:45.374Z,22.33
2022-08-16T01:31:20.181Z,22.88
2022-08-16T01:33:57.791Z,23.05
2022-08-16T01:36:26.470Z,21.27
2022-08-16T01:38:57.137Z,21.95
2022-08-16T01:41:30.948Z,22.77
2022-08-16T01:46:49.025Z,20.23
2022-08-16T01:49:42.944Z,22.50
2022-08-16T01:52:29.925Z,22.13
2022-08-16T01:55:00.622Z,22.50
2022-08-16T01:57:31.633Z,21.67
2022-08-16T02:00:01.204Z,21.48
2022-08-16T02:02:42.337Z,22.95
2022-08-16T02:05:12.264Z,22.45
2022-08-16T02:07:39.283Z,20.83
2022-08-16T02:10:12.184Z,22.02
2022-08-16T02:12:51.038Z,22.15
2022-08-16T02:15:27.890Z,23.07
2022-08-16T02:18:01.097Z,21.20
2022-08-16T02:20:33.984Z,22.70
2022-08-16T02:23:05.891Z,22.38
2022-08-16T02:25:52.315Z,21.52
2022-08-16T02:28:23.667Z,23.33
2022-08-16T02:30:55.391Z,22.95
2022-08-16T02:33:43.983Z,20.88
2022-08-16T02:36:47.477Z,20.75
2022-08-16T02:39:05.284Z,23.42
2022-08-16T02:41:37.411Z,20.83
2022-08-16T02:44:11.263Z,21.40
2022-08-16T02:46:50.266Z,21.67
2022-08-16T02:49:20.761Z,22.25
2022-08-16T02:51:47.912Z,21.77
2022-08-16T02:54:17.546Z,22.05
2022-08-16T02:56:48.011Z,22.00
2022-08-16T02:59:15.030Z,22.50
2022-08-16T03:01:41.967Z,21.75
2022-08-16T03:04:41.084Z,24.15
2022-08-16T03:06:57.485Z,22.80
2022-08-16T03:09:28.884Z,23.70
2022-08-16T03:12:00.940Z,26.67
2022-08-16T03:14:29.279Z,26.88
2022-08-16T03:16:58.897Z,24.42
2022-08-16T03:19:47.240Z,24.05
2022-08-16T03:22:29.089Z,23.42
2022-08-16T03:25:05.008Z,24.25
2022-08-16T03:27:35.608Z,26.00
2022-08-16T03:30:17.760Z,24.45
2022-08-16T03:32:51.709Z,24.67
2022-08-16T03:38:03.306Z,23.35
2022-08-16T03:40:37.248Z,23.00
2022-08-16T03:45:52.864Z,22.20
2022-08-16T03:48:36.373Z,23.77
2022-08-16T03:51:12.456Z,23.45
2022-08-16T03:53:42.553Z,36.15
2022-08-16T03:56:19.831Z,32.10
2022-08-16T03:58:50.940Z,42.22
2022-08-16T04:01:23.529Z,35.08
2022-08-16T04:03:56.057Z,35.63
2022-08-16T04:06:22.933Z,39.08
2022-08-16T04:08:50.180Z,33.92
2022-08-16T04:11:18.515Z,30.80
2022-08-16T04:14:00.407Z,36.47
2022-08-16T04:16:34.730Z,35.00
2022-08-16T04:19:04.610Z,47.15
2022-08-16T04:21:46.087Z,48.17
2022-08-16T04:24:15.703Z,57.70
2022-08-16T04:26:46.032Z,54.05
2022-08-16T04:29:23.636Z,64.65
2022-08-16T04:31:56.165Z,44.88
2022-08-16T04:34:34.729Z,52.00
2022-08-16T04:37:03.263Z,63.05
2022-08-16T04:39:46.016Z,42.75
2022-08-16T04:42:26.347Z,31.40
2022-08-16T04:44:58.569Z,34.05
2022-08-16T04:47:33.424Z,51.28
2022-08-16T04:52:56.844Z,46.58
2022-08-16T04:55:38.021Z,29.88
2022-08-16T04:58:44.975Z,34.17
2022-08-16T05:00:55.237Z,37.35
2022-08-16T05:03:24.355Z,38.85
2022-08-16T05:05:59.142Z,36.60
2022-08-16T05:08:33.077Z,64.32
2022-08-16T05:11:08.390Z,39.70
2022-08-16T05:13:42.588Z,49.60
2022-08-16T05:16:21.836Z,48.90
2022-08-16T05:18:53.800Z,56.47
2022-08-16T05:21:25.055Z,70.35
2022-08-16T05:23:58.524Z,98.45
2022-08-16T05:26:31.952Z,77.20
2022-08-16T05:29:03.663Z,85.05
2022-08-16T05:31:32.265Z,68.40
2022-08-16T05:34:04.383Z,124.85
2022-08-16T05:36:33.931Z,83.78
2022-08-16T05:39:09.544Z,94.53
2022-08-16T05:41:45.075Z,129.40
2022-08-16T05:44:23.393Z,142.13
2022-08-16T05:46:56.408Z,86.15
2022-08-16T05:49:39.690Z,149.13
2022-08-16T05:52:13.614Z,110.05
2022-08-16T05:54:47.823Z,105.25
2022-08-16T05:57:25.515Z,144.88
2022-08-16T06:00:05.621Z,76.40
2022-08-16T06:02:37.350Z,71.65
2022-08-16T06:05:06.817Z,82.07
2022-08-16T06:07:38.590Z,90.63
2022-08-16T06:10:07.763Z,122.38
2022-08-16T06:12:37.334Z,116.63
2022-08-16T06:15:15.067Z,79.00
2022-08-16T06:17:45.130Z,99.20
2022-08-16T06:20:35.466Z,81.68
2022-08-16T06:23:11.593Z,97.82
2022-08-16T06:25:44.177Z,87.20
2022-08-16T06:28:34.817Z,89.22
2022-08-16T06:31:06.378Z,96.10
2022-08-16T06:33:41.311Z,81.03
2022-08-16T06:36:11.489Z,121.43
2022-08-16T06:38:55.673Z,92.15
2022-08-16T06:41:24.218Z,82.13
2022-08-16T06:43:54.280Z,85.05
2022-08-16T06:46:37.646Z,93.80
2022-08-16T06:49:11.104Z,88.47
2022-08-16T06:51:48.258Z,78.55
2022-08-16T06:54:17.109Z,85.25
2022-08-16T06:56:44.624Z,83.47
2022-08-16T06:59:13.192Z,82.82
2022-08-16T07:01:44.932Z,85.78
2022-08-16T07:04:28.188Z,80.15
2022-08-16T07:07:01.701Z,72.57
2022-08-16T07:09:29.637Z,71.15
2022-08-16T07:12:03.229Z,64.65
2022-08-16T07:14:35.173Z,62.97
2022-08-16T07:17:03.295Z,64.60
2022-08-16T07:20:29.221Z,56.90
2022-08-16T07:22:36.737Z,56.65
2022-08-16T07:25:22.794Z,57.65
2022-08-16T07:27:50.378Z,47.60
2022-08-16T07:30:38.504Z,52.03
2022-08-16T07:33:16.269Z,52.80
2022-08-16T07:35:49.813Z,51.03
2022-08-16T07:38:19.766Z,47.78
2022-08-16T07:41:00.030Z,45.05
2022-08-16T07:43:29.679Z,48.17
2022-08-16T07:45:57.183Z,43.20
2022-08-16T07:48:23.936Z,42.40
2022-08-16T07:50:56.451Z,44.15
2022-08-16T07:53:32.202Z,45.13
2022-08-16T07:56:00.717Z,46.30
2022-08-16T07:58:34.664Z,43.50
2022-08-16T08:01:10.459Z,45.65
2022-08-16T08:03:48.438Z,37.95
2022-08-16T08:06:24.793Z,41.42
2022-08-16T08:08:57.179Z,36.45
2022-08-16T08:11:31.079Z,36.38
2022-08-16T08:14:03.537Z,35.92
2022-08-16T08:16:33.767Z,35.42
2022-08-16T08:19:03.286Z,35.78
2022-08-16T08:22:00.740Z,33.53
2022-08-16T08:24:31.486Z,34.72
2022-08-16T08:27:04.095Z,31.33
2022-08-16T08:29:37.733Z,29.88
2022-08-16T08:32:58.023Z,28.02
2022-08-16T08:35:00.495Z,28.17
2022-08-16T08:37:54.410Z,28.92
2022-08-16T08:40:24.806Z,29.10
2022-08-16T08:42:57.724Z,29.13
2022-08-16T08:45:46.900Z,28.30
2022-08-16T08:48:34.255Z,26.52
2022-08-16T08:51:09.826Z,23.83
2022-08-16T08:53:37.780Z,24.80
2022-08-16T08:56:23.330Z,24.90
2022-08-16T08:58:54.992Z,19.33
2022-08-16T09:04:14.697Z,19.48
2022-08-16T09:06:45.379Z,19.80
2022-08-16T09:09:16.984Z,16.67
2022-08-16T09:11:53.774Z,16.80
2022-08-16T09:14:32.287Z,16.17
2022-08-16T09:17:03.541Z,15.80
2022-08-16T09:19:42.501Z,16.85
2022-08-16T09:22:20.007Z,15.18
2022-08-16T09:24:53.633Z,14.00
2022-08-16T09:27:26.570Z,14.98
2022-08-16T09:30:00.701Z,15.88
2022-08-16T09:32:41.344Z,12.38
2022-08-16T09:35:13.825Z,12.00
2022-08-16T09:37:42.716Z,12.60
2022-08-16T09:40:32.565Z,11.13
2022-08-16T09:42:58.968Z,12.35
2022-08-16T09:45:39.004Z,12.52
2022-08-16T09:48:08.727Z,12.07
2022-08-16T09:50:39.055Z,12.88
2022-08-16T09:53:18.836Z,10.85
2022-08-16T09:55:52.501Z,11.43
2022-08-16T09:58:37.696Z,12.43
2022-08-16T10:01:11.429Z,13.13
2022-08-16T10:04:02.112Z,11.98
2022-08-16T10:06:33.467Z,11.85
2022-08-16T10:09:06.800Z,12.32
2022-08-16T10:11:56.061Z,13.18
2022-08-16T10:14:38.691Z,11.98
2022-08-16T10:17:06.196Z,11.90
2022-08-16T10:19:33.768Z,12.25
2022-08-16T10:22:05.124Z,12.32
2022-08-16T10:24:33.860Z,11.73
2022-08-16T10:27:25.579Z,10.60
2022-08-16T10:29:59.203Z,11.15
2022-08-16T10:32:30.659Z,12.27
2022-08-16T10:35:00.409Z,10.50
2022-08-16T10:37:32.604Z,11.57
2022-08-16T10:40:29.084Z,12.60
2022-08-16T10:42:59.894Z,12.07
2022-08-16T10:45:36.583Z,12.95
2022-08-16T10:48:24.034Z,11.35
2022-08-16T10:50:58.737Z,10.50
2022-08-16T10:53:33.061Z,11.20
2022-08-16T10:56:52.770Z,10.80
2022-08-16T10:59:29.247Z,11.35
2022-08-16T11:02:21.876Z,11.48
2022-08-16T11:11:00.031Z,12.32
2022-08-16T11:12:53.605Z,11.93
2022-08-16T11:15:22.378Z,11.35
2022-08-16T11:20:48.944Z,11.25
2022-08-16T11:23:16.909Z,11.75
2022-08-16T11:31:19.932Z,11.63
2022-08-16T11:33:55.642Z,11.30
2022-08-16T11:36:25.062Z,11.45
2022-08-16T11:39:00.559Z,12.07
2022-08-16T11:41:29.327Z,11.73
2022-08-16T11:43:58.015Z,11.10
2022-08-16T11:46:43.481Z,11.18
2022-08-16T11:49:13.888Z,10.18
2022-08-16T11:51:46.531Z,10.25
2022-08-16T11:54:20.853Z,10.85
2022-08-16T11:56:56.943Z,8.70
2022-08-16T11:59:28.637Z,12.73
2022-08-16T12:02:04.392Z,10.07
2022-08-16T12:04:51.629Z,9.30
2022-08-16T12:07:20.320Z,8.88
2022-08-16T12:09:50.423Z,7.35
2022-08-16T12:12:23.968Z,9.55
2022-08-16T12:14:59.323Z,9.43
2022-08-16T12:17:31.624Z,10.57
2022-08-16T12:20:00.549Z,8.98
2022-08-16T12:22:29.062Z,9.55
2022-08-16T12:24:59.341Z,8.77
2022-08-16T12:27:26.535Z,8.18
2022-08-16T12:29:58.390Z,7.53
2022-08-16T12:32:39.567Z,8.48
2022-08-16T12:35:17.768Z,8.00
2022-08-16T12:37:47.808Z,7.05
2022-08-16T12:40:29.209Z,7.25
2022-08-16T12:43:00.856Z,7.80
2022-08-16T12:45:35.997Z,7.20
2022-08-16T12:48:34.976Z,7.50
2022-08-16T12:51:19.846Z,7.65
2022-08-16T12:53:56.596Z,8.27
2022-08-16T12:56:33.503Z,7.18
2022-08-16T12:59:13.888Z,8.23
2022-08-16T13:01:47.702Z,8.32
2022-08-16T13:04:24.339Z,8.07
2022-08-16T13:06:52.873Z,8.35
2022-08-16T13:09:26.126Z,8.20
2022-08-16T13:12:18.780Z,8.40
2022-08-16T13:14:50.140Z,8.32
2022-08-16T13:17:26.541Z,7.95
2022-08-16T13:20:07.677Z,8.60
2022-08-16T13:22:51.557Z,6.30
2022-08-16T13:25:26.622Z,7.70
2022-08-16T13:28:02.019Z,6.82
2022-08-16T13:30:42.491Z,7.85
2022-08-16T13:33:24.845Z,6.95
2022-08-16T13:36:00.294Z,6.90
2022-08-16T13:38:32.662Z,6.10
2022-08-16T13:41:12.460Z,7.13
2022-08-16T13:43:40.515Z,7.68
2022-08-16T13:46:08.614Z,7.30
2022-08-16T13:48:43.948Z,7.40
2022-08-16T13:51:19.289Z,6.97
2022-08-16T13:53:59.703Z,11.18
2022-08-16T13:56:38.831Z,7.47
2022-08-16T13:59:20.394Z,6.82
2022-08-16T14:01:59.835Z,6.82
2022-08-16T14:04:33.978Z,6.15
2022-08-16T14:07:07.027Z,5.72
2022-08-16T14:09:36.862Z,6.17
2022-08-16T14:12:33.880Z,8.55
2022-08-16T14:15:01.746Z,7.00
2022-08-16T14:17:31.240Z,6.05
2022-08-16T14:20:31.672Z,5.90
2022-08-16T14:22:58.970Z,5.85
2022-08-16T14:25:27.074Z,6.25
2022-08-16T14:27:55.805Z,7.32
2022-08-16T14:30:24.403Z,8.48
2022-08-16T14:32:52.832Z,6.68
2022-08-16T14:35:49.268Z,6.82
2022-08-16T14:38:39.203Z,6.43
2022-08-16T14:41:10.320Z,6.35
2022-08-16T14:43:37.465Z,6.60
2022-08-16T14:46:07.382Z,7.00
2022-08-16T14:48:34.508Z,7.13
2022-08-16T14:51:01.903Z,7.00
2022-08-16T14:53:32.848Z,6.50
2022-08-16T14:56:04.115Z,7.20
2022-08-16T14:58:36.999Z,6.97
2022-08-16T15:01:09.966Z,7.18
2022-08-16T15:03:37.790Z,8.40
2022-08-16T15:06:05.705Z,6.90
2022-08-16T15:08:34.012Z,6.40
2022-08-16T15:11:04.641Z,6.95
2022-08-16T15:13:31.502Z,6.25
2022-08-16T15:16:02.589Z,6.10
2022-08-16T15:18:33.391Z,6.60
2022-08-16T15:21:04.931Z,6.47
2022-08-16T15:23:34.034Z,7.97
2022-08-16T15:26:04.262Z,7.00
2022-08-16T15:28:38.889Z,7.60
2022-08-16T15:31:13.127Z,7.03
2022-08-16T15:33:56.428Z,7.13
2022-08-16T15:36:36.432Z,7.38
2022-08-16T15:39:30.174Z,6.68
2022-08-16T15:42:11.192Z,6.47
2022-08-16T15:44:52.983Z,7.28
2022-08-16T15:47:35.143Z,7.95
2022-08-16T15:50:04.859Z,6.77
2022-08-16T15:52:38.008Z,7.13
2022-08-16T15:55:24.119Z,6.43
2022-08-16T15:57:56.624Z,6.78
2022-08-16T16:00:53.646Z,6.18
2022-08-16T16:03:52.228Z,7.03
2022-08-16T16:06:48.829Z,8.02
2022-08-16T16:09:36.831Z,6.80
2022-08-16T16:12:34.160Z,6.40
2022-08-16T16:14:56.326Z,6.07
2022-08-16T16:17:32.653Z,5.70
2022-08-16T16:19:59.794Z,6.22
2022-08-16T16:22:33.356Z,6.10
2022-08-16T16:27:35.129Z,6.50
2022-08-16T16:30:11.272Z,6.50
2022-08-16T16:32:51.777Z,5.80
2022-08-16T16:35:37.061Z,6.32
2022-08-16T16:38:08.237Z,7.00
2022-08-16T16:40:38.941Z,6.18
2022-08-16T16:43:16.399Z,7.22
2022-08-16T16:45:44.927Z,6.68
2022-08-16T16:48:13.117Z,7.05
2022-08-16T16:50:44.706Z,5.72
2022-08-16T16:53:18.097Z,6.00
2022-08-16T16:55:52.493Z,6.20
2022-08-16T16:58:53.349Z,5.95
2022-08-16T17:01:57.564Z,6.30
2022-08-16T17:04:37.148Z,5.55
2022-08-16T17:07:10.468Z,6.43
2022-08-16T17:09:39.461Z,5.85
2022-08-16T17:12:22.670Z,5.90
2022-08-16T17:14:57.206Z,6.20
2022-08-16T17:17:24.440Z,6.65
2022-08-16T17:19:54.188Z,6.18
2022-08-16T17:22:23.261Z,6.18
2022-08-16T17:24:53.283Z,6.05
2022-08-16T17:27:33.709Z,6.47
2022-08-16T17:30:14.840Z,6.47
2022-08-16T17:32:54.342Z,6.82
2022-08-16T17:35:55.452Z,8.13
2022-08-16T17:38:43.964Z,7.53
2022-08-16T17:41:12.289Z,9.30
2022-08-16T17:43:44.339Z,9.18
2022-08-16T17:46:50.088Z,9.77
2022-08-16T17:49:01.981Z,10.18
2022-08-16T17:51:28.752Z,9.40
2022-08-16T17:53:56.565Z,9.65
2022-08-16T17:56:23.455Z,10.55
2022-08-16T17:58:50.154Z,10.75
2022-08-16T18:01:25.268Z,10.82
2022-08-16T18:04:06.891Z,10.27
2022-08-16T18:09:04.137Z,10.50
2022-08-16T18:11:38.279Z,10.30
2022-08-16T18:14:10.913Z,9.73
2022-08-16T18:16:38.178Z,9.10
2022-08-16T18:19:04.919Z,9.68
2022-08-16T18:21:50.641Z,9.63
2022-08-16T18:24:20.597Z,9.48
2022-08-16T18:26:47.464Z,9.90
2022-08-16T18:29:14.441Z,9.90
2022-08-16T18:31:41.875Z,10.48
2022-08-16T18:34:08.839Z,10.48
2022-08-16T18:36:37.063Z,10.82
2022-08-16T18:39:05.697Z,11.23
2022-08-16T18:41:36.908Z,11.23
2022-08-16T18:44:26.272Z,10.50
2022-08-16T18:46:55.283Z,11.73
2022-08-16T18:49:22.285Z,12.52
2022-08-16T18:51:50.695Z,11.80
2022-08-16T18:54:18.100Z,12.55
2022-08-16T18:56:55.565Z,12.50
2022-08-16T18:59:29.220Z,14.13
2022-08-16T19:02:00.094Z,12.27
2022-08-16T19:04:55.647Z,11.70
2022-08-16T19:07:30.606Z,12.85
2022-08-16T19:10:01.555Z,13.88
2022-08-16T19:12:38.569Z,12.95
2022-08-16T19:15:21.166Z,13.43
2022-08-16T19:17:48.554Z,13.40
2022-08-16T19:20:28.048Z,13.93
2022-08-16T19:23:05.092Z,14.32
2022-08-16T19:25:47.493Z,13.25
2022-08-16T19:28:52.004Z,14.82
2022-08-16T19:31:28.720Z,13.70
2022-08-16T19:33:57.224Z,14.15
2022-08-16T19:36:39.300Z,13.77
2022-08-16T19:39:17.130Z,14.10
2022-08-16T19:41:53.305Z,15.15
2022-08-16T19:44:24.133Z,14.65
2022-08-16T19:46:51.531Z,14.95
2022-08-16T19:49:18.336Z,15.13
2022-08-16T19:51:49.360Z,14.13
2022-08-16T19:54:17.471Z,14.30
2022-08-16T19:56:44.708Z,14.57
2022-08-16T19:59:21.582Z,15.00
2022-08-16T20:01:52.385Z,15.93
2022-08-16T20:04:21.740Z,16.27
2022-08-16T20:06:49.043Z,16.02
2022-08-16T20:09:19.396Z,15.82
2022-08-16T20:11:49.565Z,15.77
2022-08-16T20:14:19.407Z,15.63
2022-08-16T20:16:53.211Z,16.35
2022-08-16T20:19:20.294Z,15.43
2022-08-16T20:21:47.178Z,15.80
2022-08-16T20:24:32.549Z,16.77
2022-08-16T20:27:02.288Z,17.98
2022-08-16T20:29:29.330Z,17.73
2022-08-16T20:31:56.633Z,17.08
2022-08-16T20:34:23.827Z,17.63
2022-08-16T20:36:50.622Z,17.75
2022-08-16T20:39:17.530Z,18.05
2022-08-16T20:41:44.698Z,17.25
2022-08-16T20:44:12.768Z,18.35
2022-08-16T20:46:42.609Z,18.48
2022-08-16T20:49:10.323Z,18.20
2022-08-16T20:51:49.046Z,18.73
2022-08-16T20:54:19.405Z,19.67
2022-08-16T20:56:49.717Z,20.48
2022-08-16T20:59:19.934Z,18.35
2022-08-16T21:01:50.604Z,19.90
2022-08-16T21:04:25.608Z,19.83
2022-08-16T21:06:55.101Z,17.58
2022-08-16T21:09:27.234Z,18.48
2022-08-16T21:11:57.641Z,19.38
2022-08-16T21:14:24.856Z,17.88
2022-08-16T21:16:52.030Z,19.27
2022-08-16T21:19:20.723Z,18.23
2022-08-16T21:21:48.287Z,19.17
2022-08-16T21:24:16.173Z,20.08
2022-08-16T21:26:55.685Z,18.73
2022-08-16T21:29:28.486Z,19.45
2022-08-16T21:32:20.128Z,18.13
2022-08-16T21:38:08.283Z,18.08
2022-08-16T21:40:45.079Z,19.15
2022-08-16T21:43:20.117Z,20.10
2022-08-16T21:45:48.224Z,18.80
2022-08-16T21:48:22.987Z,20.55
2022-08-16T21:51:16.564Z,20.65
2022-08-16T21:53:44.803Z,19.75
2022-08-16T21:56:12.706Z,18.98
2022-08-16T21:58:45.235Z,21.15
2022-08-16T22:01:13.667Z,21.30
2022-08-16T22:03:40.535Z,20.80
2022-08-16T22:06:13.768Z,21.20
2022-08-16T22:08:50.042Z,20.77
2022-08-16T22:11:24.824Z,19.25
2022-08-16T22:16:34.372Z,18.98
2022-08-16T22:19:04.483Z,19.70
2022-08-16T22:21:33.276Z,21.15
2022-08-16T22:24:00.871Z,22.40
2022-08-16T22:26:32.558Z,21.40
2022-08-16T22:29:10.966Z,21.15
2022-08-16T22:31:41.541Z,22.83
2022-08-16T22:34:08.895Z,21.02
2022-08-16T22:36:37.077Z,20.67
2022-08-16T22:39:10.874Z,20.85
2022-08-16T22:41:42.232Z,21.52
2022-08-16T22:44:09.784Z,20.52
2022-08-16T22:46:37.582Z,20.52
2022-08-16T22:49:07.106Z,21.27
2022-08-16T22:51:37.719Z,23.10
2022-08-16T22:54:45.871Z,22.27
2022-08-16T22:56:53.987Z,23.15
2022-08-16T22:59:20.707Z,24.75
2022-08-16T23:01:47.464Z,24.17
2022-08-16T23:04:14.337Z,23.70
2022-08-16T23:06:41.105Z,23.90
2022-08-16T23:09:08.160Z,25.15
2022-08-16T23:11:35.517Z,22.92
2022-08-16T23:14:02.210Z,26.63
2022-08-16T23:16:34.601Z,24.08
2022-08-16T23:19:07.997Z,24.48
2022-08-16T23:21:38.013Z,26.67
2022-08-16T23:24:07.246Z,29.13
2022-08-16T23:26:46.083Z,29.83
2022-08-16T23:29:26.284Z,28.02
2022-08-16T23:32:11.657Z,29.75
2022-08-16T23:34:38.475Z,29.52
2022-08-16T23:37:06.496Z,28.60
2022-08-16T23:39:33.515Z,28.48
2022-08-16T23:42:00.719Z,28.08
2022-08-16T23:44:55.192Z,29.45
2022-08-16T23:47:16.825Z,28.60
2022-08-16T23:49:59.885Z,26.80
2022-08-16T23:52:53.509Z,31.08
2022-08-16T23:55:17.401Z,30.08
2022-08-16T23:57:46.023Z,30.40
